sensor_id;sensor_type;location;lat;lon;timestamp;pressure;altitude;pressure_sealevel;temperature;humidity
58072;BME280;60383;46.626;18.866;2023-07-13T00:02:07;100105.59;;;24.73;74.90
58072;BME280;60383;46.626;18.866;2023-07-13T00:04:33;100102.03;;;24.78;74.39
58072;BME280;60383;46.626;18.866;2023-07-13T00:06:59;100109.63;;;24.82;73.37
58072;BME280;60383;46.626;18.866;2023-07-13T00:09:24;100099.03;;;24.84;72.63
58072;BME280;60383;46.626;18.866;2023-07-13T00:11:52;100098.09;;;24.79;72.19
58072;BME280;60383;46.626;18.866;2023-07-13T00:14:18;100099.03;;;24.84;72.37
58072;BME280;60383;46.626;18.866;2023-07-13T00:16:44;100097.97;;;24.91;71.25
58072;BME280;60383;46.626;18.866;2023-07-13T00:19:11;100094.41;;;24.73;71.55
58072;BME280;60383;46.626;18.866;2023-07-13T00:21:38;100088.59;;;24.80;72.87
58072;BME280;60383;46.626;18.866;2023-07-13T00:24:05;100099.22;;;24.78;73.16
58072;BME280;60383;46.626;18.866;2023-07-13T00:26:30;100092.59;;;24.84;72.25
58072;BME280;60383;46.626;18.866;2023-07-13T00:28:58;100091.28;;;24.69;72.45
58072;BME280;60383;46.626;18.866;2023-07-13T00:31:24;100080.97;;;24.75;74.05
58072;BME280;60383;46.626;18.866;2023-07-13T00:33:50;100089.78;;;24.84;74.22
58072;BME280;60383;46.626;18.866;2023-07-13T00:36:15;100086.00;;;24.73;73.75
58072;BME280;60383;46.626;18.866;2023-07-13T00:38:41;100080.06;;;24.69;74.42
58072;BME280;60383;46.626;18.866;2023-07-13T00:41:06;100080.91;;;24.70;74.38
58072;BME280;60383;46.626;18.866;2023-07-13T00:43:32;100085.00;;;24.62;74.34
58072;BME280;60383;46.626;18.866;2023-07-13T00:46:12;100094.91;;;24.70;72.95
58072;BME280;60383;46.626;18.866;2023-07-13T00:48:38;100091.84;;;24.71;71.62
58072;BME280;60383;46.626;18.866;2023-07-13T00:51:05;100087.63;;;24.69;70.87
58072;BME280;60383;46.626;18.866;2023-07-13T00:53:32;100092.13;;;24.70;70.65
58072;BME280;60383;46.626;18.866;2023-07-13T00:55:59;100094.91;;;24.70;70.86
58072;BME280;60383;46.626;18.866;2023-07-13T00:58:25;100093.22;;;24.69;71.30
58072;BME280;60383;46.626;18.866;2023-07-13T01:00:52;100092.91;;;24.48;72.45
58072;BME280;60383;46.626;18.866;2023-07-13T01:03:19;100090.94;;;24.66;72.23
58072;BME280;60383;46.626;18.866;2023-07-13T01:05:47;100092.34;;;24.46;73.37
58072;BME280;60383;46.626;18.866;2023-07-13T01:08:13;100086.81;;;24.51;73.80
58072;BME280;60383;46.626;18.866;2023-07-13T01:10:39;100085.59;;;24.47;74.42
58072;BME280;60383;46.626;18.866;2023-07-13T01:13:09;100089.31;;;24.31;75.07
58072;BME280;60383;46.626;18.866;2023-07-13T01:15:43;100079.75;;;24.27;75.98
58072;BME280;60383;46.626;18.866;2023-07-13T01:18:26;100073.88;;;24.28;76.54
58072;BME280;60383;46.626;18.866;2023-07-13T01:20:59;100068.47;;;24.21;76.77
58072;BME280;60383;46.626;18.866;2023-07-13T01:23:26;100070.91;;;24.18;77.70
58072;BME280;60383;46.626;18.866;2023-07-13T01:25:52;100065.25;;;24.13;77.79
58072;BME280;60383;46.626;18.866;2023-07-13T01:28:21;100058.84;;;23.95;78.86
58072;BME280;60383;46.626;18.866;2023-07-13T01:30:47;100062.66;;;24.06;79.16
58072;BME280;60383;46.626;18.866;2023-07-13T01:33:15;100043.97;;;24.12;79.30
58072;BME280;60383;46.626;18.866;2023-07-13T01:35:42;100040.31;;;24.28;78.11
58072;BME280;60383;46.626;18.866;2023-07-13T01:38:09;100040.56;;;24.27;80.20
58072;BME280;60383;46.626;18.866;2023-07-13T01:40:35;100040.03;;;24.30;80.45
58072;BME280;60383;46.626;18.866;2023-07-13T01:43:01;100028.03;;;24.29;80.56
58072;BME280;60383;46.626;18.866;2023-07-13T01:45:27;100029.69;;;24.30;80.51
58072;BME280;60383;46.626;18.866;2023-07-13T01:47:52;100034.28;;;24.36;80.32
58072;BME280;60383;46.626;18.866;2023-07-13T01:50:17;100035.28;;;24.30;79.05
58072;BME280;60383;46.626;18.866;2023-07-13T01:52:43;100029.19;;;24.33;79.07
58072;BME280;60383;46.626;18.866;2023-07-13T01:55:09;100023.91;;;24.37;79.89
58072;BME280;60383;46.626;18.866;2023-07-13T01:57:34;100023.00;;;24.31;80.03
58072;BME280;60383;46.626;18.866;2023-07-13T02:00:03;100022.59;;;24.22;80.36
58072;BME280;60383;46.626;18.866;2023-07-13T02:02:30;100023.50;;;24.06;82.32
58072;BME280;60383;46.626;18.866;2023-07-13T02:04:55;100018.75;;;24.06;82.45
58072;BME280;60383;46.626;18.866;2023-07-13T02:07:21;100020.59;;;24.01;82.75
58072;BME280;60383;46.626;18.866;2023-07-13T02:09:47;100027.88;;;23.85;83.36
58072;BME280;60383;46.626;18.866;2023-07-13T02:12:12;100022.97;;;23.92;83.14
58072;BME280;60383;46.626;18.866;2023-07-13T02:14:38;100012.88;;;23.91;82.62
58072;BME280;60383;46.626;18.866;2023-07-13T02:17:04;100027.13;;;23.89;83.16
58072;BME280;60383;46.626;18.866;2023-07-13T02:19:30;100026.13;;;23.61;84.79
58072;BME280;60383;46.626;18.866;2023-07-13T02:21:55;100028.72;;;23.51;85.14
58072;BME280;60383;46.626;18.866;2023-07-13T02:24:21;100015.78;;;23.45;85.78
58072;BME280;60383;46.626;18.866;2023-07-13T02:26:46;100022.50;;;23.61;84.78
58072;BME280;60383;46.626;18.866;2023-07-13T02:29:13;100014.00;;;23.73;83.69
58072;BME280;60383;46.626;18.866;2023-07-13T02:31:38;100011.44;;;23.88;83.91
58072;BME280;60383;46.626;18.866;2023-07-13T02:34:04;99998.31;;;23.55;86.61
58072;BME280;60383;46.626;18.866;2023-07-13T02:36:30;99985.97;;;23.51;87.54
58072;BME280;60383;46.626;18.866;2023-07-13T02:38:56;99973.00;;;23.61;87.10
58072;BME280;60383;46.626;18.866;2023-07-13T02:41:21;99989.78;;;23.61;85.82
58072;BME280;60383;46.626;18.866;2023-07-13T02:43:48;99992.72;;;23.55;85.67
58072;BME280;60383;46.626;18.866;2023-07-13T02:46:14;99990.97;;;23.66;84.62
58072;BME280;60383;46.626;18.866;2023-07-13T02:48:40;99994.88;;;23.65;86.18
58072;BME280;60383;46.626;18.866;2023-07-13T02:51:06;99994.88;;;23.65;86.74
58072;BME280;60383;46.626;18.866;2023-07-13T02:53:32;99999.88;;;23.63;87.05
58072;BME280;60383;46.626;18.866;2023-07-13T02:55:58;100005.94;;;23.59;87.27
58072;BME280;60383;46.626;18.866;2023-07-13T02:58:25;100008.31;;;23.51;87.54
58072;BME280;60383;46.626;18.866;2023-07-13T03:00:51;100003.75;;;23.44;86.89
58072;BME280;60383;46.626;18.866;2023-07-13T03:03:17;100005.78;;;23.32;87.34
58072;BME280;60383;46.626;18.866;2023-07-13T03:05:44;100009.34;;;23.27;87.17
58072;BME280;60383;46.626;18.866;2023-07-13T03:08:10;99997.16;;;23.68;85.40
58072;BME280;60383;46.626;18.866;2023-07-13T03:10:36;99996.72;;;23.42;86.34
58072;BME280;60383;46.626;18.866;2023-07-13T03:13:02;99998.06;;;23.22;89.26
58072;BME280;60383;46.626;18.866;2023-07-13T03:15:28;100003.66;;;23.22;89.19
58072;BME280;60383;46.626;18.866;2023-07-13T03:17:53;100001.31;;;23.48;89.09
58072;BME280;60383;46.626;18.866;2023-07-13T03:20:19;100003.25;;;23.48;87.99
58072;BME280;60383;46.626;18.866;2023-07-13T03:22:44;99993.53;;;23.50;87.90
58072;BME280;60383;46.626;18.866;2023-07-13T03:25:10;99986.56;;;23.36;88.47
58072;BME280;60383;46.626;18.866;2023-07-13T03:27:36;99992.66;;;23.33;89.73
58072;BME280;60383;46.626;18.866;2023-07-13T03:30:03;99982.84;;;23.01;92.24
58072;BME280;60383;46.626;18.866;2023-07-13T03:32:28;99981.09;;;23.12;91.77
58072;BME280;60383;46.626;18.866;2023-07-13T03:34:54;99975.44;;;22.78;94.43
58072;BME280;60383;46.626;18.866;2023-07-13T03:37:21;99973.94;;;22.58;94.93
58072;BME280;60383;46.626;18.866;2023-07-13T03:39:47;99975.22;;;22.96;92.64
58072;BME280;60383;46.626;18.866;2023-07-13T03:42:12;99979.72;;;22.97;91.51
58072;BME280;60383;46.626;18.866;2023-07-13T03:44:39;99980.97;;;23.19;90.42
58072;BME280;60383;46.626;18.866;2023-07-13T03:47:05;99988.28;;;23.37;89.86
58072;BME280;60383;46.626;18.866;2023-07-13T03:49:31;99994.44;;;23.39;89.20
58072;BME280;60383;46.626;18.866;2023-07-13T03:51:57;100005.94;;;23.59;88.23
58072;BME280;60383;46.626;18.866;2023-07-13T03:54:22;99990.19;;;23.70;88.27
58072;BME280;60383;46.626;18.866;2023-07-13T03:56:48;99972.25;;;23.32;90.95
58072;BME280;60383;46.626;18.866;2023-07-13T03:59:13;99981.81;;;23.36;91.56
58072;BME280;60383;46.626;18.866;2023-07-13T04:01:39;99996.72;;;23.59;91.69
58072;BME280;60383;46.626;18.866;2023-07-13T04:04:04;100008.56;;;23.83;89.86
58072;BME280;60383;46.626;18.866;2023-07-13T04:06:30;100032.38;;;23.69;89.27
58072;BME280;60383;46.626;18.866;2023-07-13T04:08:58;100062.88;;;23.87;87.11
58072;BME280;60383;46.626;18.866;2023-07-13T04:11:26;100096.16;;;23.89;84.11
58072;BME280;60383;46.626;18.866;2023-07-13T04:13:51;100126.06;;;23.71;84.07
58072;BME280;60383;46.626;18.866;2023-07-13T04:16:18;100148.84;;;23.80;83.56
58072;BME280;60383;46.626;18.866;2023-07-13T04:18:45;100160.88;;;23.64;83.44
58072;BME280;60383;46.626;18.866;2023-07-13T04:21:10;100190.97;;;23.73;82.93
58072;BME280;60383;46.626;18.866;2023-07-13T04:23:37;100298.84;;;23.86;82.03
58072;BME280;60383;46.626;18.866;2023-07-13T04:26:02;100370.75;;;21.69;92.56
58072;BME280;60383;46.626;18.866;2023-07-13T04:28:28;100263.22;;;21.05;100.00
58072;BME280;60383;46.626;18.866;2023-07-13T04:37:17;100223.19;;;20.12;100.00
58072;BME280;60383;46.626;18.866;2023-07-13T04:39:42;100172.31;;;20.11;100.00
58072;BME280;60383;46.626;18.866;2023-07-13T04:42:08;100215.88;;;20.18;100.00
58072;BME280;60383;46.626;18.866;2023-07-13T04:44:33;100143.81;;;20.41;100.00
58072;BME280;60383;46.626;18.866;2023-07-13T04:46:59;100179.34;;;20.58;100.00
58072;BME280;60383;46.626;18.866;2023-07-13T04:49:24;100236.25;;;20.62;100.00
58072;BME280;60383;46.626;18.866;2023-07-13T04:51:50;100308.25;;;20.77;100.00
58072;BME280;60383;46.626;18.866;2023-07-13T04:54:15;100335.44;;;20.75;100.00
58072;BME280;60383;46.626;18.866;2023-07-13T04:56:41;100308.19;;;20.84;100.00
58072;BME280;60383;46.626;18.866;2023-07-13T04:59:06;100341.28;;;20.92;100.00
58072;BME280;60383;46.626;18.866;2023-07-13T05:01:32;100330.28;;;20.79;100.00
58072;BME280;60383;46.626;18.866;2023-07-13T05:03:57;100355.38;;;20.97;100.00
58072;BME280;60383;46.626;18.866;2023-07-13T05:06:24;100395.09;;;20.86;100.00
58072;BME280;60383;46.626;18.866;2023-07-13T05:08:50;100411.69;;;20.99;100.00
58072;BME280;60383;46.626;18.866;2023-07-13T05:11:15;100370.56;;;21.01;100.00
58072;BME280;60383;46.626;18.866;2023-07-13T05:13:40;100404.25;;;21.18;100.00
58072;BME280;60383;46.626;18.866;2023-07-13T05:16:06;100504.91;;;21.15;100.00
58072;BME280;60383;46.626;18.866;2023-07-13T05:18:32;100458.66;;;20.89;100.00
58072;BME280;60383;46.626;18.866;2023-07-13T05:21:06;100494.84;;;20.89;100.00
58072;BME280;60383;46.626;18.866;2023-07-13T05:23:34;100415.66;;;20.85;100.00
58072;BME280;60383;46.626;18.866;2023-07-13T05:26:00;100287.84;;;20.83;100.00
58072;BME280;60383;46.626;18.866;2023-07-13T05:28:27;100320.19;;;20.84;100.00
58072;BME280;60383;46.626;18.866;2023-07-13T05:30:53;100282.94;;;20.85;100.00
58072;BME280;60383;46.626;18.866;2023-07-13T05:33:20;100235.00;;;21.02;100.00
58072;BME280;60383;46.626;18.866;2023-07-13T05:35:45;100211.75;;;20.96;100.00
58072;BME280;60383;46.626;18.866;2023-07-13T05:38:11;100252.72;;;21.08;100.00
58072;BME280;60383;46.626;18.866;2023-07-13T05:40:37;100280.09;;;21.11;100.00
58072;BME280;60383;46.626;18.866;2023-07-13T05:43:03;100294.47;;;21.08;100.00
58072;BME280;60383;46.626;18.866;2023-07-13T05:45:29;100289.06;;;21.13;100.00
58072;BME280;60383;46.626;18.866;2023-07-13T05:47:54;100287.69;;;21.03;100.00
58072;BME280;60383;46.626;18.866;2023-07-13T05:50:20;100272.88;;;21.03;100.00
58072;BME280;60383;46.626;18.866;2023-07-13T05:52:46;100268.09;;;21.29;99.50
58072;BME280;60383;46.626;18.866;2023-07-13T05:55:12;100259.69;;;21.17;100.00
58072;BME280;60383;46.626;18.866;2023-07-13T05:57:38;100251.53;;;21.15;100.00
58072;BME280;60383;46.626;18.866;2023-07-13T06:00:04;100228.03;;;20.93;100.00
58072;BME280;60383;46.626;18.866;2023-07-13T06:02:29;100218.91;;;21.04;100.00
58072;BME280;60383;46.626;18.866;2023-07-13T06:04:55;100213.50;;;21.09;100.00
58072;BME280;60383;46.626;18.866;2023-07-13T06:07:21;100212.69;;;21.39;100.00
58072;BME280;60383;46.626;18.866;2023-07-13T06:09:46;100217.78;;;21.42;100.00
58072;BME280;60383;46.626;18.866;2023-07-13T06:12:11;100221.91;;;21.58;100.00
58072;BME280;60383;46.626;18.866;2023-07-13T06:14:37;100209.38;;;21.79;95.05
58072;BME280;60383;46.626;18.866;2023-07-13T06:17:02;100222.63;;;21.84;96.82
58072;BME280;60383;46.626;18.866;2023-07-13T06:19:28;100231.63;;;21.67;96.70
58072;BME280;60383;46.626;18.866;2023-07-13T06:21:54;100221.25;;;21.75;98.16
58072;BME280;60383;46.626;18.866;2023-07-13T06:24:19;100224.53;;;21.83;98.57
58072;BME280;60383;46.626;18.866;2023-07-13T06:26:45;100227.25;;;21.90;99.75
58072;BME280;60383;46.626;18.866;2023-07-13T06:29:10;100226.19;;;22.15;97.40
58072;BME280;60383;46.626;18.866;2023-07-13T06:31:36;100209.16;;;22.35;98.27
58072;BME280;60383;46.626;18.866;2023-07-13T06:34:01;100223.28;;;22.10;95.55
58072;BME280;60383;46.626;18.866;2023-07-13T06:36:27;100220.78;;;22.20;93.45
58072;BME280;60383;46.626;18.866;2023-07-13T06:38:53;100209.56;;;22.51;93.02
58072;BME280;60383;46.626;18.866;2023-07-13T06:41:19;100225.19;;;22.52;92.75
58072;BME280;60383;46.626;18.866;2023-07-13T06:43:44;100221.06;;;22.78;93.26
58072;BME280;60383;46.626;18.866;2023-07-13T06:46:09;100199.81;;;22.89;91.49
58072;BME280;60383;46.626;18.866;2023-07-13T06:48:35;100220.44;;;23.00;92.39
58072;BME280;60383;46.626;18.866;2023-07-13T06:51:01;100202.34;;;23.26;85.69
58072;BME280;60383;46.626;18.866;2023-07-13T06:53:27;100203.59;;;22.94;83.67
58072;BME280;60383;46.626;18.866;2023-07-13T06:55:53;100224.16;;;23.41;84.26
58072;BME280;60383;46.626;18.866;2023-07-13T06:58:19;100220.72;;;23.51;81.94
58072;BME280;60383;46.626;18.866;2023-07-13T07:00:44;100211.06;;;23.29;85.06
58072;BME280;60383;46.626;18.866;2023-07-13T07:03:10;100206.13;;;23.49;81.63
58072;BME280;60383;46.626;18.866;2023-07-13T07:05:36;100211.63;;;23.72;84.66
58072;BME280;60383;46.626;18.866;2023-07-13T07:08:01;100206.69;;;23.91;80.63
58072;BME280;60383;46.626;18.866;2023-07-13T07:10:30;100210.22;;;23.87;80.25
58072;BME280;60383;46.626;18.866;2023-07-13T07:12:56;100213.84;;;23.87;78.51
58072;BME280;60383;46.626;18.866;2023-07-13T07:15:22;100201.28;;;23.73;78.00
58072;BME280;60383;46.626;18.866;2023-07-13T07:17:47;100199.50;;;23.96;79.32
58072;BME280;60383;46.626;18.866;2023-07-13T07:20:13;100197.56;;;23.67;83.41
58072;BME280;60383;46.626;18.866;2023-07-13T07:22:39;100212.81;;;24.05;79.95
58072;BME280;60383;46.626;18.866;2023-07-13T07:25:04;100221.72;;;24.02;79.67
58072;BME280;60383;46.626;18.866;2023-07-13T07:27:30;100220.97;;;24.24;77.76
58072;BME280;60383;46.626;18.866;2023-07-13T07:29:55;100225.97;;;24.05;76.63
58072;BME280;60383;46.626;18.866;2023-07-13T07:32:23;100218.94;;;24.02;76.93
58072;BME280;60383;46.626;18.866;2023-07-13T07:34:48;100226.25;;;23.63;77.37
58072;BME280;60383;46.626;18.866;2023-07-13T07:37:14;100229.72;;;23.82;81.95
58072;BME280;60383;46.626;18.866;2023-07-13T07:39:39;100236.69;;;23.96;81.80
58072;BME280;60383;46.626;18.866;2023-07-13T07:42:06;100237.91;;;24.00;78.00
58072;BME280;60383;46.626;18.866;2023-07-13T07:44:32;100240.66;;;24.29;77.68
58072;BME280;60383;46.626;18.866;2023-07-13T07:46:58;100248.59;;;24.54;74.78
58072;BME280;60383;46.626;18.866;2023-07-13T07:49:24;100249.63;;;24.65;76.32
58072;BME280;60383;46.626;18.866;2023-07-13T07:51:49;100248.03;;;24.18;76.31
58072;BME280;60383;46.626;18.866;2023-07-13T07:54:16;100252.19;;;24.50;77.12
58072;BME280;60383;46.626;18.866;2023-07-13T07:56:41;100268.72;;;24.51;77.33
58072;BME280;60383;46.626;18.866;2023-07-13T07:59:07;100254.00;;;24.73;77.53
58072;BME280;60383;46.626;18.866;2023-07-13T08:01:33;100262.28;;;25.02;75.88
58072;BME280;60383;46.626;18.866;2023-07-13T08:03:58;100271.59;;;25.30;72.73
58072;BME280;60383;46.626;18.866;2023-07-13T08:06:24;100270.56;;;25.53;74.35
58072;BME280;60383;46.626;18.866;2023-07-13T08:08:50;100273.69;;;25.57;74.37
58072;BME280;60383;46.626;18.866;2023-07-13T08:11:15;100290.25;;;25.86;71.45
58072;BME280;60383;46.626;18.866;2023-07-13T08:13:41;100293.34;;;25.84;74.33
58072;BME280;60383;46.626;18.866;2023-07-13T08:16:06;100295.97;;;25.91;72.07
58072;BME280;60383;46.626;18.866;2023-07-13T08:18:32;100299.06;;;25.94;74.72
58072;BME280;60383;46.626;18.866;2023-07-13T08:20:58;100301.72;;;26.06;71.70
58072;BME280;60383;46.626;18.866;2023-07-13T08:23:24;100304.13;;;26.20;69.66
58072;BME280;60383;46.626;18.866;2023-07-13T08:25:53;100301.22;;;26.09;69.82
58072;BME280;60383;46.626;18.866;2023-07-13T08:28:23;100302.38;;;26.13;68.44
58072;BME280;60383;46.626;18.866;2023-07-13T08:30:49;100303.97;;;26.31;69.96
58072;BME280;60383;46.626;18.866;2023-07-13T08:33:18;100300.38;;;26.09;71.20
58072;BME280;60383;46.626;18.866;2023-07-13T08:35:48;100304.94;;;26.15;71.92
58072;BME280;60383;46.626;18.866;2023-07-13T08:38:15;100293.78;;;26.53;68.43
58072;BME280;60383;46.626;18.866;2023-07-13T08:40:42;100297.47;;;26.58;67.42
58072;BME280;60383;46.626;18.866;2023-07-13T08:43:16;100303.09;;;26.58;69.37
58072;BME280;60383;46.626;18.866;2023-07-13T08:45:47;100295.00;;;26.67;69.54
58072;BME280;60383;46.626;18.866;2023-07-13T08:48:26;100303.06;;;26.86;68.82
58072;BME280;60383;46.626;18.866;2023-07-13T08:50:57;100302.56;;;26.94;66.23
58072;BME280;60383;46.626;18.866;2023-07-13T08:53:31;100294.22;;;27.09;65.79
58072;BME280;60383;46.626;18.866;2023-07-13T08:55:59;100300.22;;;27.23;66.33
58072;BME280;60383;46.626;18.866;2023-07-13T08:58:25;100301.09;;;27.29;68.41
58072;BME280;60383;46.626;18.866;2023-07-13T09:01:28;100304.19;;;27.27;65.82
58072;BME280;60383;46.626;18.866;2023-07-13T09:04:14;100299.84;;;27.52;67.51
58072;BME280;60383;46.626;18.866;2023-07-13T09:14:49;100301.25;;;27.12;67.60
58072;BME280;60383;46.626;18.866;2023-07-13T09:17:22;100296.06;;;27.36;67.19
58072;BME280;60383;46.626;18.866;2023-07-13T09:20:23;100296.16;;;27.47;66.67
58072;BME280;60383;46.626;18.866;2023-07-13T09:22:52;100306.09;;;27.65;66.33
58072;BME280;60383;46.626;18.866;2023-07-13T09:25:32;100305.78;;;27.56;65.99
58072;BME280;60383;46.626;18.866;2023-07-13T09:28:29;100300.25;;;27.82;66.06
58072;BME280;60383;46.626;18.866;2023-07-13T09:31:23;100309.53;;;27.82;64.98
58072;BME280;60383;46.626;18.866;2023-07-13T09:33:50;100302.19;;;27.76;65.58
58072;BME280;60383;46.626;18.866;2023-07-13T09:36:28;100305.88;;;27.82;66.17
58072;BME280;60383;46.626;18.866;2023-07-13T09:39:04;100308.69;;;27.82;65.51
58072;BME280;60383;46.626;18.866;2023-07-13T09:44:17;100303.66;;;28.04;65.80
58072;BME280;60383;46.626;18.866;2023-07-13T09:46:46;100310.53;;;28.24;62.15
58072;BME280;60383;46.626;18.866;2023-07-13T09:49:12;100299.56;;;28.33;61.98
58072;BME280;60383;46.626;18.866;2023-07-13T09:51:41;100308.31;;;28.57;62.67
58072;BME280;60383;46.626;18.866;2023-07-13T09:54:18;100301.25;;;28.60;61.08
58072;BME280;60383;46.626;18.866;2023-07-13T09:56:43;100310.84;;;28.84;59.72
58072;BME280;60383;46.626;18.866;2023-07-13T09:59:20;100305.22;;;28.74;59.04
58072;BME280;60383;46.626;18.866;2023-07-13T10:01:46;100305.22;;;28.74;60.34
58072;BME280;60383;46.626;18.866;2023-07-13T10:04:17;100319.56;;;29.09;57.29
58072;BME280;60383;46.626;18.866;2023-07-13T10:06:44;100307.44;;;29.13;57.34
58072;BME280;60383;46.626;18.866;2023-07-13T10:09:15;100308.56;;;29.12;56.91
58072;BME280;60383;46.626;18.866;2023-07-13T10:11:41;100305.75;;;29.12;57.74
58072;BME280;60383;46.626;18.866;2023-07-13T10:14:16;100298.69;;;29.30;57.95
58072;BME280;60383;46.626;18.866;2023-07-13T10:16:44;100308.78;;;29.42;56.19
58072;BME280;60383;46.626;18.866;2023-07-13T10:19:25;100301.47;;;29.36;57.16
58072;BME280;60383;46.626;18.866;2023-07-13T10:21:57;100295.88;;;29.30;58.61
58072;BME280;60383;46.626;18.866;2023-07-13T10:24:30;100284.81;;;29.50;55.82
58072;BME280;60383;46.626;18.866;2023-07-13T10:29:37;100284.22;;;29.53;55.99
58072;BME280;60383;46.626;18.866;2023-07-13T10:32:11;100285.03;;;29.63;53.57
58072;BME280;60383;46.626;18.866;2023-07-13T10:34:37;100280.13;;;29.85;54.40
58072;BME280;60383;46.626;18.866;2023-07-13T10:37:05;100286.88;;;29.94;55.17
58072;BME280;60383;46.626;18.866;2023-07-13T10:39:34;100281.56;;;29.82;54.65
58072;BME280;60383;46.626;18.866;2023-07-13T10:42:04;100285.44;;;30.02;54.55
58072;BME280;60383;46.626;18.866;2023-07-13T10:44:32;100289.09;;;30.02;53.23
58072;BME280;60383;46.626;18.866;2023-07-13T10:47:04;100285.25;;;30.27;51.43
58072;BME280;60383;46.626;18.866;2023-07-13T10:49:33;100291.72;;;30.33;51.28
58072;BME280;60383;46.626;18.866;2023-07-13T10:52:00;100296.25;;;30.34;50.50
58072;BME280;60383;46.626;18.866;2023-07-13T10:54:30;100295.25;;;30.54;52.17
58072;BME280;60383;46.626;18.866;2023-07-13T10:57:21;100294.06;;;30.61;49.29
58072;BME280;60383;46.626;18.866;2023-07-13T11:02:28;100292.03;;;30.26;51.17
58072;BME280;60383;46.626;18.866;2023-07-13T11:04:55;100285.31;;;30.17;51.34
58072;BME280;60383;46.626;18.866;2023-07-13T11:07:26;100289.66;;;30.04;52.32
58072;BME280;60383;46.626;18.866;2023-07-13T11:09:58;100281.44;;;30.08;53.81
58072;BME280;60383;46.626;18.866;2023-07-13T11:22:53;100257.66;;;30.59;49.41
58072;BME280;60383;46.626;18.866;2023-07-13T11:25:33;100261.16;;;30.40;49.72
58072;BME280;60383;46.626;18.866;2023-07-13T11:35:49;100263.34;;;30.83;47.58
58072;BME280;60383;46.626;18.866;2023-07-13T11:38:19;100266.25;;;30.78;48.32
58072;BME280;60383;46.626;18.866;2023-07-13T11:40:47;100278.56;;;30.87;49.25
58072;BME280;60383;46.626;18.866;2023-07-13T11:43:15;100279.81;;;31.05;49.85
58072;BME280;60383;46.626;18.866;2023-07-13T11:45:41;100266.34;;;31.21;49.68
58072;BME280;60383;46.626;18.866;2023-07-13T11:48:22;100281.13;;;31.18;49.02
58072;BME280;60383;46.626;18.866;2023-07-13T11:50:54;100283.88;;;31.23;50.15
58072;BME280;60383;46.626;18.866;2023-07-13T11:53:20;100275.06;;;31.30;48.33
58072;BME280;60383;46.626;18.866;2023-07-13T11:55:45;100280.47;;;31.27;49.46
58072;BME280;60383;46.626;18.866;2023-07-13T11:58:22;100267.00;;;31.37;49.44
58072;BME280;60383;46.626;18.866;2023-07-13T12:00:49;100272.56;;;31.48;48.69
58072;BME280;60383;46.626;18.866;2023-07-13T12:03:20;100277.31;;;31.28;48.33
58072;BME280;60383;46.626;18.866;2023-07-13T12:06:06;100283.81;;;31.53;48.14
58072;BME280;60383;46.626;18.866;2023-07-13T12:08:43;100278.06;;;31.58;48.12
58072;BME280;60383;46.626;18.866;2023-07-13T12:11:16;100271.59;;;31.58;47.59
58072;BME280;60383;46.626;18.866;2023-07-13T12:13:43;100264.16;;;31.62;46.71
58072;BME280;60383;46.626;18.866;2023-07-13T12:16:21;100266.75;;;31.58;45.56
58072;BME280;60383;46.626;18.866;2023-07-13T12:18:52;100270.09;;;31.41;44.12
58072;BME280;60383;46.626;18.866;2023-07-13T12:21:19;100259.81;;;31.50;44.75
58072;BME280;60383;46.626;18.866;2023-07-13T12:23:49;100259.22;;;31.53;45.53
58072;BME280;60383;46.626;18.866;2023-07-13T12:26:15;100265.03;;;31.62;46.77
58072;BME280;60383;46.626;18.866;2023-07-13T12:28:52;100267.50;;;31.69;45.44
58072;BME280;60383;46.626;18.866;2023-07-13T12:36:54;100260.28;;;31.58;43.11
58072;BME280;60383;46.626;18.866;2023-07-13T12:39:23;100259.97;;;31.59;42.55
58072;BME280;60383;46.626;18.866;2023-07-13T12:41:52;100246.47;;;31.32;42.92
58072;BME280;60383;46.626;18.866;2023-07-13T12:44:27;100252.53;;;31.44;44.02
58072;BME280;60383;46.626;18.866;2023-07-13T12:47:09;100256.88;;;31.36;45.20
58072;BME280;60383;46.626;18.866;2023-07-13T12:49:41;100248.97;;;31.58;43.01
58072;BME280;60383;46.626;18.866;2023-07-13T12:52:16;100246.47;;;31.32;44.64
58072;BME280;60383;46.626;18.866;2023-07-13T12:54:52;100246.44;;;31.56;42.91
58072;BME280;60383;46.626;18.866;2023-07-13T12:57:18;100237.81;;;31.42;42.93
58072;BME280;60383;46.626;18.866;2023-07-13T12:59:43;100239.50;;;31.67;43.93
58072;BME280;60383;46.626;18.866;2023-07-13T13:02:23;100235.00;;;31.42;45.64
58072;BME280;60383;46.626;18.866;2023-07-13T13:04:51;100229.88;;;31.44;46.32
58072;BME280;60383;46.626;18.866;2023-07-13T13:07:17;100226.59;;;31.37;44.12
58072;BME280;60383;46.626;18.866;2023-07-13T13:09:45;100215.50;;;31.41;43.78
58072;BME280;60383;46.626;18.866;2023-07-13T13:12:12;100199.38;;;31.41;45.30
58072;BME280;60383;46.626;18.866;2023-07-13T13:14:38;100199.44;;;31.36;44.76
58072;BME280;60383;46.626;18.866;2023-07-13T13:17:23;100186.81;;;31.28;44.64
58072;BME280;60383;46.626;18.866;2023-07-13T13:19:50;100194.16;;;31.05;46.01
58072;BME280;60383;46.626;18.866;2023-07-13T13:22:18;100199.75;;;30.56;46.78
58072;BME280;60383;46.626;18.866;2023-07-13T13:24:44;100206.97;;;30.68;46.98
58072;BME280;60383;46.626;18.866;2023-07-13T13:27:18;100217.97;;;30.69;46.15
58072;BME280;60383;46.626;18.866;2023-07-13T13:29:45;100222.44;;;30.41;48.05
58072;BME280;60383;46.626;18.866;2023-07-13T13:32:13;100213.72;;;30.72;48.68